Time;durP1;ratioP1;P1;durP2;ratioP2;P2;SDS_P1;SDS_P2;PMS_P1;PMS_P2;Temp;Humidity;BMP_temperature;BMP_pressure;BME280_temperature;BME280_humidity;BME280_pressure;Samples;Min_cycle;Max_cycle;Signal;HPM_P1;HPM_P2
2022/01/25 00:29:57;;;;;;;;;;;5.10;99.90;;;;;;8394084;28;19970;-71
2022/01/25 00:33:59;;;;;;;;;;;5.10;99.90;;;;;;8373842;28;19936;-72
2022/01/25 00:38:01;;;;;;;;;;;5.10;99.90;;;;;;8381401;28;20399;-72
2022/01/25 00:42:03;;;;;;;;;;;5.00;99.90;;;;;;8391633;28;20016;-72
2022/01/25 00:46:08;;;;;;;;;;;5.10;99.90;;;;;;8396000;28;19976;-72
2022/01/25 00:50:14;;;;;;;;;;;5.10;99.90;;;;;;8398315;28;20333;-72
2022/01/25 00:58:24;;;;;;;;;;;5.10;99.90;;;;;;8393661;28;19925;-72
2022/01/25 01:02:25;;;;;;;;;;;5.10;99.90;;;;;;8390851;28;19979;-72
2022/01/25 01:06:27;;;;;;;;;;;5.00;99.90;;;;;;8390918;28;19932;-72
2022/01/25 01:10:29;;;;;;;;;;;5.10;99.90;;;;;;8374519;28;19924;-71
2022/01/25 01:44:09;;;;;;;;;;;5.00;99.90;;;;;;8390620;28;20368;-72
2022/01/25 01:48:26;;;;;;;;;;;5.00;99.90;;;;;;8392450;28;19925;-72
2022/01/25 01:52:28;;;;;;;;;;;5.00;99.90;;;;;;8383287;28;20447;-72
2022/01/25 01:56:30;;;;;;;;;;;5.00;99.90;;;;;;8392703;28;19924;-72
2022/01/25 02:00:40;;;;;;;;;;;5.00;99.90;;;;;;8386097;28;19925;-71
2022/01/25 02:04:42;;;;;;;;;;;5.00;99.90;;;;;;8388577;28;19943;-72
2022/01/25 02:08:43;;;;;;;;;;;5.00;99.90;;;;;;8389376;28;20299;-71
2022/01/25 02:12:48;;;;;;;;;;;5.00;99.90;;;;;;8370595;28;19929;-71
2022/01/25 02:25:12;;;;;;;;;;;5.00;99.90;;;;;;8387096;28;19979;-72
2022/01/25 02:29:14;;;;;;;;;;;5.00;99.90;;;;;;8390387;28;19924;-72
2022/01/25 02:33:15;;;;;;;;;;;5.00;99.90;;;;;;8372369;28;19936;-72
2022/01/25 02:37:17;;;;;;;;;;;5.00;99.90;;;;;;8399075;28;20284;-72
2022/01/25 02:41:19;;;;;;;;;;;5.00;99.90;;;;;;8371372;28;20019;-71
2022/01/25 02:45:21;;;;;;;;;;;5.00;99.90;;;;;;8374915;28;19959;-71
2022/01/25 02:49:23;;;;;;;;;;;4.90;99.90;;;;;;8389594;28;19979;-72
2022/01/25 02:53:25;;;;;;;;;;;4.90;99.90;;;;;;8383598;28;19929;-72
2022/01/25 02:57:26;;;;;;;;;;;4.90;99.90;;;;;;8385097;28;19928;-72
2022/01/25 03:01:28;;;;;;;;;;;4.90;99.90;;;;;;8381638;28;19936;-72
2022/01/25 03:05:30;;;;;;;;;;;4.90;99.90;;;;;;8393883;28;19925;-72
2022/01/25 03:09:32;;;;;;;;;;;4.90;99.90;;;;;;8370513;28;19924;-72
2022/01/25 03:13:47;;;;;;;;;;;4.90;99.90;;;;;;8389375;28;19999;-71
2022/01/25 03:18:14;;;;;;;;;;;4.90;99.90;;;;;;8373603;28;19963;-72
2022/01/25 03:26:35;;;;;;;;;;;4.90;99.90;;;;;;8385769;28;19932;-72
2022/01/25 03:30:37;;;;;;;;;;;4.90;99.90;;;;;;8386417;28;19936;-72
2022/01/25 03:34:39;;;;;;;;;;;4.90;99.90;;;;;;8390535;28;19928;-72
2022/01/25 03:38:41;;;;;;;;;;;4.90;99.90;;;;;;8388232;28;19924;-72
2022/01/25 03:42:44;;;;;;;;;;;4.80;99.90;;;;;;8366864;28;19935;-72
2022/01/25 03:50:51;;;;;;;;;;;4.80;99.90;;;;;;8384425;28;19932;-72
2022/01/25 03:54:53;;;;;;;;;;;4.80;99.90;;;;;;8384739;28;20023;-72
2022/01/25 03:58:55;;;;;;;;;;;4.80;99.90;;;;;;8386914;28;19925;-72
2022/01/25 04:03:07;;;;;;;;;;;4.80;99.90;;;;;;8379703;28;19971;-71
2022/01/25 04:07:11;;;;;;;;;;;4.80;99.90;;;;;;8382159;28;19928;-72
2022/01/25 04:11:13;;;;;;;;;;;4.80;99.90;;;;;;8391460;28;19928;-71
2022/01/25 04:15:15;;;;;;;;;;;4.80;99.90;;;;;;8383974;28;19924;-72
2022/01/25 04:19:28;;;;;;;;;;;4.80;99.90;;;;;;8385363;28;19936;-72
2022/01/25 04:27:50;;;;;;;;;;;4.80;99.90;;;;;;8387424;28;20034;-72
2022/01/25 04:31:51;;;;;;;;;;;4.80;99.90;;;;;;8388013;28;20038;-72
2022/01/25 04:36:09;;;;;;;;;;;4.80;99.90;;;;;;8385543;28;19924;-73
2022/01/25 04:48:54;;;;;;;;;;;4.80;99.90;;;;;;8391735;28;19925;-72
2022/01/25 04:53:14;;;;;;;;;;;4.80;99.90;;;;;;8378058;28;19980;-72
2022/01/25 05:01:23;;;;;;;;;;;4.80;99.90;;;;;;8390173;28;19924;-72
2022/01/25 05:05:33;;;;;;;;;;;4.80;99.90;;;;;;8381315;28;19970;-72
2022/01/25 05:09:36;;;;;;;;;;;4.70;99.90;;;;;;8376542;28;19970;-72
2022/01/25 05:13:46;;;;;;;;;;;4.70;99.90;;;;;;8396093;28;20411;-72
2022/01/25 05:18:18;;;;;;;;;;;4.80;99.90;;;;;;8390332;28;19929;-72
2022/01/25 05:22:20;;;;;;;;;;;4.80;99.90;;;;;;8381459;28;19982;-73
2022/01/25 05:26:22;;;;;;;;;;;4.80;99.90;;;;;;8379731;28;19944;-72
2022/01/25 05:30:24;;;;;;;;;;;4.80;99.90;;;;;;8373302;28;19956;-72
2022/01/25 05:34:25;;;;;;;;;;;4.70;99.90;;;;;;8368567;28;19924;-72
2022/01/25 05:38:27;;;;;;;;;;;4.70;99.90;;;;;;8387780;28;19944;-72
2022/01/25 05:46:47;;;;;;;;;;;4.70;99.90;;;;;;8388855;28;19932;-73
2022/01/25 05:50:49;;;;;;;;;;;4.70;99.90;;;;;;8391451;28;19967;-71
2022/01/25 05:54:51;;;;;;;;;;;4.70;99.90;;;;;;8392702;28;19928;-72
2022/01/25 05:58:52;;;;;;;;;;;4.70;99.90;;;;;;8394596;28;20396;-72
2022/01/25 06:02:55;;;;;;;;;;;4.60;99.90;;;;;;8384376;28;19975;-72
2022/01/25 06:06:57;;;;;;;;;;;4.60;99.90;;;;;;8388377;28;19934;-71
2022/01/25 06:10:59;;;;;;;;;;;4.60;99.90;;;;;;8394139;28;20003;-72
2022/01/25 06:15:01;;;;;;;;;;;4.60;99.90;;;;;;8386811;28;19924;-72
2022/01/25 06:19:02;;;;;;;;;;;4.60;99.90;;;;;;8392160;28;19928;-72
2022/01/25 06:23:08;;;;;;;;;;;4.60;99.90;;;;;;8389043;28;19985;-72
2022/01/25 06:27:10;;;;;;;;;;;4.60;99.90;;;;;;8392691;28;20275;-71
2022/01/25 06:31:12;;;;;;;;;;;4.70;99.90;;;;;;8390191;28;19925;-72
2022/01/25 06:35:14;;;;;;;;;;;4.70;99.90;;;;;;8390745;28;19929;-72
2022/01/25 06:39:16;;;;;;;;;;;4.70;99.90;;;;;;8372552;28;20260;-71
2022/01/25 06:43:17;;;;;;;;;;;4.70;99.90;;;;;;8372492;28;20035;-72
2022/01/25 06:47:19;;;;;;;;;;;4.70;99.90;;;;;;8398513;28;20363;-72
2022/01/25 06:51:20;;;;;;;;;;;4.70;99.90;;;;;;8385655;28;19970;-72
2022/01/25 06:55:34;;;;;;;;;;;4.70;99.90;;;;;;8389302;28;19951;-72
2022/01/25 06:59:36;;;;;;;;;;;4.60;99.90;;;;;;8392280;28;19932;-71
2022/01/25 07:03:38;;;;;;;;;;;4.60;99.90;;;;;;8372236;28;19963;-72
2022/01/25 07:07:40;;;;;;;;;;;4.60;99.90;;;;;;8389884;28;19924;-71
2022/01/25 07:11:42;;;;;;;;;;;4.60;99.90;;;;;;8367805;28;19925;-72
2022/01/25 07:15:47;;;;;;;;;;;4.60;99.90;;;;;;8391252;28;19925;-72
2022/01/25 07:19:48;;;;;;;;;;;4.60;99.90;;;;;;8387259;28;19967;-72
2022/01/25 07:23:50;;;;;;;;;;;4.60;99.90;;;;;;8390830;28;20074;-72
2022/01/25 07:27:52;;;;;;;;;;;4.60;99.90;;;;;;8370632;28;19925;-72
2022/01/25 07:31:55;;;;;;;;;;;4.60;99.90;;;;;;8385533;28;19925;-72
2022/01/25 07:36:05;;;;;;;;;;;4.70;99.90;;;;;;8383706;28;20395;-71
2022/01/25 07:40:07;;;;;;;;;;;4.60;99.90;;;;;;8384784;28;19944;-71
2022/01/25 07:44:08;;;;;;;;;;;4.60;99.90;;;;;;8371045;28;19931;-72
2022/01/25 07:48:10;;;;;;;;;;;4.60;99.90;;;;;;8387166;28;19928;-71
2022/01/25 07:52:12;;;;;;;;;;;4.60;99.90;;;;;;8368398;28;20694;-72
2022/01/25 08:01:18;;;;;;;;;;;4.60;99.90;;;;;;8377750;28;19971;-72
2022/01/25 08:05:21;;;;;;;;;;;4.50;99.90;;;;;;8388626;28;19931;-72
2022/01/25 08:09:47;;;;;;;;;;;4.60;99.90;;;;;;8366686;28;19924;-72
2022/01/25 08:14:01;;;;;;;;;;;4.60;99.90;;;;;;8392481;28;19931;-72
2022/01/25 08:18:16;;;;;;;;;;;4.60;99.90;;;;;;8395218;28;19973;-72
2022/01/25 08:22:33;;;;;;;;;;;4.70;99.90;;;;;;8371338;28;19944;-72
2022/01/25 08:27:17;;;;;;;;;;;4.70;99.90;;;;;;8365722;28;20368;-72
2022/01/25 08:31:51;;;;;;;;;;;4.70;99.90;;;;;;8385947;28;19928;-72
2022/01/25 08:36:19;;;;;;;;;;;4.70;99.90;;;;;;8313590;28;20156;-72
2022/01/25 08:40:24;;;;;;;;;;;4.70;99.90;;;;;;8294452;28;19925;-73
2022/01/25 08:44:43;;;;;;;;;;;4.70;99.90;;;;;;8308635;28;19925;-72
2022/01/25 08:48:58;;;;;;;;;;;4.70;99.90;;;;;;8315692;28;19925;-72
2022/01/25 08:53:02;;;;;;;;;;;4.80;99.90;;;;;;8302859;28;20000;-72
2022/01/25 08:57:13;;;;;;;;;;;4.80;99.90;;;;;;8307433;28;19979;-72
2022/01/25 09:01:37;;;;;;;;;;;4.80;99.90;;;;;;8311628;28;19925;-72
2022/01/25 09:05:39;;;;;;;;;;;4.80;99.90;;;;;;8312836;28;19926;-72
2022/01/25 09:09:41;;;;;;;;;;;4.80;99.90;;;;;;8302705;28;19971;-72
2022/01/25 09:13:43;;;;;;;;;;;4.80;99.90;;;;;;8377210;28;19924;-72
2022/01/25 09:17:45;;;;;;;;;;;4.80;99.90;;;;;;8377910;28;19924;-72
2022/01/25 09:21:46;;;;;;;;;;;4.80;99.90;;;;;;8395290;28;19968;-72
2022/01/25 09:25:49;;;;;;;;;;;4.80;99.90;;;;;;8399041;28;19936;-72
2022/01/25 09:29:50;;;;;;;;;;;4.80;99.90;;;;;;8395513;28;19936;-72
2022/01/25 09:33:52;;;;;;;;;;;4.80;99.90;;;;;;8389407;28;20304;-72
2022/01/25 09:37:53;;;;;;;;;;;4.80;99.90;;;;;;8392906;28;19925;-72
2022/01/25 09:41:55;;;;;;;;;;;4.80;99.90;;;;;;8393012;28;20043;-72
2022/01/25 09:45:57;;;;;;;;;;;4.90;99.90;;;;;;8374359;28;19960;-72
2022/01/25 09:49:59;;;;;;;;;;;4.80;99.90;;;;;;8376525;28;20296;-73
2022/01/25 09:54:01;;;;;;;;;;;4.80;99.90;;;;;;8386727;28;19930;-73
2022/01/25 09:58:03;;;;;;;;;;;4.90;99.90;;;;;;8403609;28;20391;-71
2022/01/25 10:02:04;;;;;;;;;;;4.80;99.90;;;;;;8372890;28;20344;-72
2022/01/25 10:06:14;;;;;;;;;;;4.80;99.90;;;;;;8390600;28;19929;-73
2022/01/25 10:10:16;;;;;;;;;;;4.80;99.90;;;;;;8363788;28;19964;-72
2022/01/25 10:14:22;;;;;;;;;;;4.80;99.90;;;;;;8376126;28;20363;-72
2022/01/25 10:18:35;;;;;;;;;;;4.90;99.90;;;;;;8394063;28;20050;-72
2022/01/25 10:22:40;;;;;;;;;;;4.90;99.90;;;;;;8375536;28;19937;-72
2022/01/25 10:26:49;;;;;;;;;;;4.90;99.90;;;;;;8392049;28;19924;-72
2022/01/25 10:30:53;;;;;;;;;;;5.00;99.90;;;;;;8375744;28;19929;-72
2022/01/25 10:34:56;;;;;;;;;;;5.00;99.90;;;;;;8389312;28;20009;-72
2022/01/25 10:38:58;;;;;;;;;;;5.00;99.90;;;;;;8371892;28;19967;-72
2022/01/25 10:43:04;;;;;;;;;;;5.00;99.90;;;;;;8372546;28;20427;-72
2022/01/25 10:47:05;;;;;;;;;;;5.00;99.90;;;;;;8389488;28;20058;-72
2022/01/25 10:51:15;;;;;;;;;;;5.00;99.90;;;;;;8391161;28;19940;-73
2022/01/25 10:55:16;;;;;;;;;;;5.00;99.90;;;;;;8389002;28;20304;-72
2022/01/25 10:59:20;;;;;;;;;;;5.00;99.90;;;;;;8393465;28;19939;-73
2022/01/25 11:03:24;;;;;;;;;;;5.00;99.90;;;;;;8387616;28;20128;-73
2022/01/25 11:07:35;;;;;;;;;;;5.00;99.90;;;;;;8389147;28;20240;-73
2022/01/25 11:11:40;;;;;;;;;;;5.00;99.90;;;;;;8389078;28;20340;-72
2022/01/25 11:15:42;;;;;;;;;;;5.10;99.90;;;;;;8380480;28;19924;-72
2022/01/25 11:19:44;;;;;;;;;;;5.00;99.90;;;;;;8370714;28;19932;-72
2022/01/25 11:23:46;;;;;;;;;;;5.00;99.90;;;;;;8372138;28;19932;-72
2022/01/25 11:27:48;;;;;;;;;;;5.00;99.90;;;;;;8365387;28;20288;-72
2022/01/25 11:31:52;;;;;;;;;;;5.10;99.90;;;;;;8375469;28;19966;-73
2022/01/25 11:35:54;;;;;;;;;;;5.10;99.90;;;;;;8389936;28;19933;-72
2022/01/25 11:39:56;;;;;;;;;;;5.10;99.90;;;;;;8397607;28;19974;-72
2022/01/25 11:44:06;;;;;;;;;;;5.10;99.90;;;;;;8384440;28;19924;-72
2022/01/25 11:48:08;;;;;;;;;;;5.10;99.90;;;;;;8390903;28;19946;-72
2022/01/25 11:52:12;;;;;;;;;;;5.10;99.90;;;;;;8394889;28;20268;-72
2022/01/25 11:56:15;;;;;;;;;;;5.10;99.90;;;;;;8388429;28;20352;-73
2022/01/25 12:00:19;;;;;;;;;;;5.10;99.90;;;;;;8372409;28;19924;-72
2022/01/25 12:04:28;;;;;;;;;;;5.10;99.90;;;;;;8393958;28;20398;-72
2022/01/25 12:08:40;;;;;;;;;;;5.10;99.90;;;;;;8380002;28;19928;-72
2022/01/25 12:13:01;;;;;;;;;;;5.10;99.90;;;;;;8400696;28;19924;-72
2022/01/25 12:17:03;;;;;;;;;;;5.20;99.90;;;;;;8393413;28;21799;-73
2022/01/25 12:21:05;;;;;;;;;;;5.20;99.90;;;;;;8402227;28;20402;-73
2022/01/25 12:25:32;;;;;;;;;;;5.20;99.90;;;;;;8387223;28;19942;-72
2022/01/25 12:29:39;;;;;;;;;;;5.20;99.90;;;;;;8399864;28;19926;-73
2022/01/25 12:33:40;;;;;;;;;;;5.20;99.90;;;;;;8396791;28;19979;-72
2022/01/25 12:37:42;;;;;;;;;;;5.20;99.90;;;;;;8377155;28;20292;-72
2022/01/25 12:41:44;;;;;;;;;;;5.20;99.90;;;;;;8384318;28;20230;-72
2022/01/25 12:45:57;;;;;;;;;;;5.20;99.90;;;;;;8379277;28;19978;-72
2022/01/25 12:49:59;;;;;;;;;;;5.20;99.90;;;;;;8396147;28;19993;-73
2022/01/25 12:54:04;;;;;;;;;;;5.20;99.90;;;;;;8379327;28;19932;-72
2022/01/25 12:58:11;;;;;;;;;;;5.20;99.90;;;;;;8382274;28;20336;-73
2022/01/25 13:02:19;;;;;;;;;;;5.20;99.90;;;;;;8372555;28;19932;-72
2022/01/25 13:06:22;;;;;;;;;;;5.20;99.90;;;;;;8395954;28;19939;-72
2022/01/25 13:10:26;;;;;;;;;;;5.30;99.90;;;;;;8378848;28;19924;-73
2022/01/25 13:18:40;;;;;;;;;;;5.20;99.90;;;;;;8382439;28;19974;-73
2022/01/25 13:22:43;;;;;;;;;;;5.30;99.90;;;;;;8377796;28;20336;-73
2022/01/25 13:26:49;;;;;;;;;;;5.20;99.90;;;;;;8373094;28;19931;-73
2022/01/25 13:30:51;;;;;;;;;;;5.20;99.90;;;;;;8370192;28;19928;-73
2022/01/25 13:35:14;;;;;;;;;;;5.20;99.90;;;;;;8391830;28;19947;-73
2022/01/25 13:39:19;;;;;;;;;;;5.20;99.90;;;;;;8397292;28;19982;-72
2022/01/25 13:47:42;;;;;;;;;;;5.20;99.90;;;;;;8392614;28;19928;-72
2022/01/25 13:51:45;;;;;;;;;;;5.20;99.90;;;;;;8378004;28;19932;-73
2022/01/25 13:55:53;;;;;;;;;;;5.20;99.90;;;;;;8379018;28;19931;-73
2022/01/25 13:59:55;;;;;;;;;;;5.20;99.90;;;;;;8386202;28;20225;-72
2022/01/25 14:04:02;;;;;;;;;;;5.20;99.90;;;;;;8377514;28;20368;-72
2022/01/25 14:08:04;;;;;;;;;;;5.30;99.90;;;;;;8372528;28;20431;-72
2022/01/25 14:24:52;;;;;;;;;;;5.20;99.90;;;;;;8387800;28;19928;-72
2022/01/25 14:29:04;;;;;;;;;;;5.20;99.90;;;;;;8371216;28;19928;-72
2022/01/25 14:33:14;;;;;;;;;;;5.10;99.90;;;;;;8405445;28;20252;-72
2022/01/25 14:37:17;;;;;;;;;;;5.10;99.90;;;;;;8368346;28;20364;-72
2022/01/25 14:41:22;;;;;;;;;;;5.10;99.90;;;;;;8393893;28;20407;-73
2022/01/25 14:45:24;;;;;;;;;;;5.10;99.90;;;;;;8377713;28;19931;-72
2022/01/25 14:49:28;;;;;;;;;;;5.10;99.90;;;;;;8395551;28;19932;-73
2022/01/25 14:53:30;;;;;;;;;;;5.00;99.90;;;;;;8375747;28;19928;-72
2022/01/25 14:57:49;;;;;;;;;;;5.00;99.90;;;;;;8382430;28;20031;-72
2022/01/25 15:01:53;;;;;;;;;;;5.00;99.90;;;;;;8368454;28;19969;-72
2022/01/25 15:05:55;;;;;;;;;;;5.00;99.90;;;;;;8385516;28;19986;-72
2022/01/25 15:29:51;;;;;;;;;;;5.00;99.90;;;;;;8380326;28;19929;-72
2022/01/25 15:33:52;;;;;;;;;;;5.00;99.90;;;;;;8387293;28;19952;-72
2022/01/25 15:38:00;;;;;;;;;;;5.00;99.90;;;;;;8385007;28;19960;-72
2022/01/25 15:42:02;;;;;;;;;;;5.00;99.90;;;;;;8391242;28;19975;-72
2022/01/25 15:46:06;;;;;;;;;;;4.90;99.90;;;;;;8386564;28;20337;-72
2022/01/25 15:50:09;;;;;;;;;;;4.90;99.90;;;;;;8389970;28;19933;-72
2022/01/25 15:54:10;;;;;;;;;;;4.90;99.90;;;;;;8354983;28;19994;-73
2022/01/25 15:58:12;;;;;;;;;;;4.90;99.90;;;;;;8357141;28;19976;-73
2022/01/25 16:02:15;;;;;;;;;;;4.90;99.90;;;;;;8371448;28;20022;-72
2022/01/25 16:06:17;;;;;;;;;;;4.90;99.90;;;;;;8335761;28;19928;-72
2022/01/25 16:10:20;;;;;;;;;;;4.80;99.90;;;;;;8351485;28;20056;-72
2022/01/25 16:14:22;;;;;;;;;;;4.80;99.90;;;;;;8341004;28;19936;-72
2022/01/25 16:18:24;;;;;;;;;;;4.80;99.90;;;;;;8360099;28;19936;-73
2022/01/25 16:22:26;;;;;;;;;;;4.70;99.90;;;;;;8359607;28;20027;-72
2022/01/25 16:26:27;;;;;;;;;;;4.70;99.90;;;;;;8363115;28;19980;-72
2022/01/25 16:30:36;;;;;;;;;;;4.70;99.90;;;;;;8354798;28;19986;-73
2022/01/25 16:34:38;;;;;;;;;;;4.70;99.90;;;;;;8357495;28;19999;-72
2022/01/25 16:38:40;;;;;;;;;;;4.70;99.90;;;;;;8352461;28;19925;-72
2022/01/25 16:42:42;;;;;;;;;;;4.70;99.90;;;;;;8339592;28;19936;-72
2022/01/25 16:46:44;;;;;;;;;;;4.70;99.90;;;;;;8356047;28;19932;-72
2022/01/25 16:50:46;;;;;;;;;;;4.60;99.90;;;;;;8361247;28;19955;-72
2022/01/25 16:54:49;;;;;;;;;;;4.60;99.90;;;;;;8377843;28;19924;-72
2022/01/25 16:59:11;;;;;;;;;;;4.60;99.90;;;;;;8345461;28;19955;-73
2022/01/25 17:03:13;;;;;;;;;;;4.50;99.90;;;;;;8361363;28;19929;-72
2022/01/25 17:07:15;;;;;;;;;;;4.50;99.90;;;;;;8344538;28;19925;-73
2022/01/25 17:11:17;;;;;;;;;;;4.50;99.90;;;;;;8361860;28;19931;-73
2022/01/25 17:15:19;;;;;;;;;;;4.50;99.90;;;;;;8363934;28;19928;-72
2022/01/25 17:19:21;;;;;;;;;;;4.50;99.90;;;;;;8350963;28;19925;-73
2022/01/25 17:23:23;;;;;;;;;;;4.40;99.90;;;;;;8347910;28;20287;-72
2022/01/25 17:27:25;;;;;;;;;;;4.40;99.90;;;;;;8360022;28;19968;-72
2022/01/25 17:31:27;;;;;;;;;;;4.40;99.90;;;;;;8344505;28;19936;-72
2022/01/25 17:35:41;;;;;;;;;;;4.40;99.90;;;;;;8358785;28;19955;-72
2022/01/25 17:39:43;;;;;;;;;;;4.50;99.90;;;;;;8345445;28;20396;-73
2022/01/25 17:43:45;;;;;;;;;;;4.40;99.90;;;;;;8358902;28;19928;-72
2022/01/25 17:47:47;;;;;;;;;;;4.40;99.90;;;;;;8361234;28;20005;-72
2022/01/25 17:52:08;;;;;;;;;;;4.40;99.90;;;;;;8343060;28;19931;-72
2022/01/25 17:56:09;;;;;;;;;;;4.40;99.90;;;;;;8355191;28;19960;-73
2022/01/25 18:00:11;;;;;;;;;;;4.40;99.90;;;;;;8377061;28;20907;-71
2022/01/25 18:04:13;;;;;;;;;;;4.40;99.90;;;;;;8362247;28;19933;-72
2022/01/25 18:08:14;;;;;;;;;;;4.40;99.90;;;;;;8357131;28;20410;-72
2022/01/25 18:12:16;;;;;;;;;;;4.40;99.90;;;;;;8357525;28;19943;-73
2022/01/25 18:16:19;;;;;;;;;;;4.30;99.90;;;;;;8343664;28;20015;-73
2022/01/25 18:20:22;;;;;;;;;;;4.30;99.90;;;;;;8351083;28;20617;-73
2022/01/25 18:24:33;;;;;;;;;;;4.30;99.90;;;;;;8361068;28;19932;-72
2022/01/25 18:28:36;;;;;;;;;;;4.30;99.90;;;;;;8359620;28;20018;-73
2022/01/25 18:32:37;;;;;;;;;;;4.30;99.90;;;;;;8360546;28;19924;-73
2022/01/25 18:36:39;;;;;;;;;;;4.30;99.90;;;;;;8344264;28;19935;-72
2022/01/25 18:40:41;;;;;;;;;;;4.30;99.90;;;;;;8342430;28;19951;-72
2022/01/25 18:44:43;;;;;;;;;;;4.30;99.90;;;;;;8358993;28;19933;-72
2022/01/25 18:48:46;;;;;;;;;;;4.30;99.90;;;;;;8356183;28;19936;-72
2022/01/25 18:52:48;;;;;;;;;;;4.30;99.90;;;;;;8339814;28;19929;-72
2022/01/25 18:56:50;;;;;;;;;;;4.30;99.90;;;;;;8344554;28;19990;-72
2022/01/25 19:00:52;;;;;;;;;;;4.30;99.90;;;;;;8358842;28;19972;-72
2022/01/25 19:04:54;;;;;;;;;;;4.30;99.90;;;;;;8341787;28;19968;-71
2022/01/25 19:09:00;;;;;;;;;;;4.20;99.90;;;;;;8357957;28;20301;-72
2022/01/25 19:13:02;;;;;;;;;;;4.10;99.90;;;;;;8356824;28;19932;-72
2022/01/25 19:17:04;;;;;;;;;;;4.10;99.90;;;;;;8364711;28;19924;-72
2022/01/25 19:21:06;;;;;;;;;;;4.10;99.90;;;;;;8367622;28;20403;-72
2022/01/25 19:25:09;;;;;;;;;;;4.00;99.90;;;;;;8354555;28;19958;-72
2022/01/25 19:29:11;;;;;;;;;;;4.00;99.90;;;;;;8355808;28;19925;-72
2022/01/25 19:33:12;;;;;;;;;;;4.10;99.90;;;;;;8360674;28;19960;-72
2022/01/25 19:37:15;;;;;;;;;;;4.10;99.90;;;;;;8360368;28;19936;-72
2022/01/25 19:41:17;;;;;;;;;;;4.10;99.90;;;;;;8352590;28;19925;-72
2022/01/25 19:45:19;;;;;;;;;;;4.20;99.90;;;;;;8345196;28;19925;-71
2022/01/25 19:49:22;;;;;;;;;;;4.20;99.90;;;;;;8356515;28;19931;-72
2022/01/25 19:53:24;;;;;;;;;;;4.10;99.90;;;;;;8358693;28;19991;-72
2022/01/25 19:57:30;;;;;;;;;;;4.10;99.90;;;;;;8348202;28;20631;-72
2022/01/25 20:01:32;;;;;;;;;;;4.10;99.90;;;;;;8339388;28;20329;-72
2022/01/25 20:05:34;;;;;;;;;;;4.20;99.90;;;;;;8356292;28;19933;-72
2022/01/25 20:09:42;;;;;;;;;;;4.20;99.90;;;;;;8359341;28;19986;-73
2022/01/25 20:13:46;;;;;;;;;;;4.20;99.90;;;;;;8358732;28;19968;-72
2022/01/25 20:17:47;;;;;;;;;;;4.20;99.90;;;;;;8359501;28;19976;-72
2022/01/25 20:21:56;;;;;;;;;;;4.20;99.90;;;;;;8344603;28;19932;-72
2022/01/25 20:30:24;;;;;;;;;;;4.20;99.90;;;;;;8373046;28;19935;-72
2022/01/25 20:34:26;;;;;;;;;;;4.10;99.90;;;;;;8348635;28;19932;-72
2022/01/25 20:38:28;;;;;;;;;;;4.10;99.90;;;;;;8365512;28;20389;-72
2022/01/25 20:42:29;;;;;;;;;;;4.10;99.90;;;;;;8348205;28;20415;-72
2022/01/25 20:46:31;;;;;;;;;;;4.10;99.90;;;;;;8358488;28;19975;-72
2022/01/25 20:50:33;;;;;;;;;;;4.10;99.90;;;;;;8364945;28;19933;-72
2022/01/25 20:54:35;;;;;;;;;;;4.00;99.90;;;;;;8366821;28;20380;-71
2022/01/25 20:58:36;;;;;;;;;;;4.00;99.90;;;;;;8361379;28;19983;-72
2022/01/25 21:02:44;;;;;;;;;;;3.90;99.90;;;;;;8346877;28;19937;-72
2022/01/25 21:06:50;;;;;;;;;;;4.00;99.90;;;;;;8362950;28;19924;-72
2022/01/25 21:10:52;;;;;;;;;;;3.90;99.90;;;;;;8374520;28;19933;-72
2022/01/25 21:14:54;;;;;;;;;;;3.80;99.90;;;;;;8379643;28;19990;-72
2022/01/25 21:18:58;;;;;;;;;;;3.80;99.90;;;;;;8365385;28;20414;-72
2022/01/25 21:23:00;;;;;;;;;;;3.80;99.90;;;;;;8360824;28;19960;-72
2022/01/25 21:27:02;;;;;;;;;;;3.80;99.90;;;;;;8360005;28;20016;-71
2022/01/25 21:31:04;;;;;;;;;;;3.80;99.90;;;;;;8346010;28;19975;-72
2022/01/25 21:35:06;;;;;;;;;;;3.80;99.90;;;;;;8359550;28;19924;-72
2022/01/25 21:39:08;;;;;;;;;;;3.80;99.90;;;;;;8357956;28;19980;-72
2022/01/25 21:43:11;;;;;;;;;;;3.80;99.90;;;;;;8359351;28;20319;-72
2022/01/25 21:47:12;;;;;;;;;;;3.80;99.90;;;;;;8357812;28;19959;-72
2022/01/25 21:51:14;;;;;;;;;;;3.80;99.90;;;;;;8360009;28;20288;-72
2022/01/25 21:55:16;;;;;;;;;;;3.80;99.90;;;;;;8359168;28;20039;-72
2022/01/25 21:59:19;;;;;;;;;;;3.80;99.90;;;;;;8357937;28;19960;-72
2022/01/25 22:03:25;;;;;;;;;;;3.90;99.90;;;;;;8356276;28;20426;-72
2022/01/25 22:07:27;;;;;;;;;;;3.90;99.90;;;;;;8393430;28;19924;-72
2022/01/25 22:11:32;;;;;;;;;;;3.90;99.90;;;;;;8389711;28;19931;-72
2022/01/25 22:15:35;;;;;;;;;;;3.90;99.90;;;;;;8372994;28;19935;-72
2022/01/25 22:19:37;;;;;;;;;;;3.90;99.90;;;;;;8374530;28;19976;-72
2022/01/25 22:23:39;;;;;;;;;;;3.90;99.90;;;;;;8395274;28;19979;-71
2022/01/25 22:27:41;;;;;;;;;;;3.90;99.90;;;;;;8371435;28;20015;-72
2022/01/25 22:31:43;;;;;;;;;;;3.90;99.90;;;;;;8397429;28;20354;-71
2022/01/25 22:35:45;;;;;;;;;;;3.90;99.90;;;;;;8385782;28;19955;-72
2022/01/25 22:39:46;;;;;;;;;;;3.90;99.90;;;;;;8391086;28;19948;-72
2022/01/25 22:48:06;;;;;;;;;;;3.90;99.90;;;;;;8390818;28;20465;-72
2022/01/25 22:52:08;;;;;;;;;;;3.80;99.90;;;;;;8385817;28;20275;-72
2022/01/25 22:56:09;;;;;;;;;;;3.70;99.90;;;;;;8387550;28;19968;-72
2022/01/25 23:00:30;;;;;;;;;;;3.70;99.90;;;;;;8388124;28;21136;-72
2022/01/25 23:04:31;;;;;;;;;;;3.70;99.90;;;;;;8388494;28;19925;-71
2022/01/25 23:08:33;;;;;;;;;;;3.70;99.90;;;;;;8389351;28;19959;-71
2022/01/25 23:13:15;;;;;;;;;;;3.70;99.90;;;;;;8389681;28;19972;-72
2022/01/25 23:17:16;;;;;;;;;;;3.70;99.90;;;;;;8382658;28;19924;-72
2022/01/25 23:21:19;;;;;;;;;;;3.70;99.90;;;;;;8373149;28;19925;-71
2022/01/25 23:25:23;;;;;;;;;;;3.70;99.90;;;;;;8386890;28;20346;-72
2022/01/25 23:29:27;;;;;;;;;;;3.70;99.90;;;;;;8385806;28;19975;-71
2022/01/25 23:38:05;;;;;;;;;;;3.70;99.90;;;;;;8384769;28;20299;-72
2022/01/25 23:42:12;;;;;;;;;;;3.70;99.90;;;;;;8386897;28;19925;-72
2022/01/25 23:46:19;;;;;;;;;;;3.70;99.90;;;;;;8385292;28;20280;-72
2022/01/25 23:50:30;;;;;;;;;;;3.70;99.90;;;;;;8385065;28;19924;-72
